createdAt,value
2018-07-09T00:01:42.039Z,3.33
2018-07-09T00:04:09.598Z,3.13
2018-07-09T00:06:37.156Z,3.37
2018-07-09T00:09:04.773Z,3.33
2018-07-09T00:11:32.329Z,3.90
2018-07-09T00:13:59.883Z,3.23
2018-07-09T00:16:27.501Z,3.80
2018-07-09T00:18:55.065Z,4.00
2018-07-09T00:21:22.619Z,3.80
2018-07-09T00:23:51.168Z,4.00
2018-07-09T00:26:18.541Z,3.50
2018-07-09T00:28:46.102Z,3.30
2018-07-09T00:31:13.697Z,3.60
2018-07-09T00:33:41.259Z,3.93
2018-07-09T00:36:08.821Z,4.10
2018-07-09T00:38:37.249Z,3.77
2018-07-09T00:41:04.801Z,3.93
2018-07-09T00:43:32.368Z,3.53
2018-07-09T00:45:59.966Z,3.53
2018-07-09T00:48:27.550Z,3.17
2018-07-09T00:50:55.170Z,4.53
2018-07-09T00:53:22.719Z,3.50
2018-07-09T00:55:50.283Z,3.10
2018-07-09T00:58:17.839Z,4.00
2018-07-09T01:00:45.446Z,3.20
2018-07-09T01:03:13.006Z,3.83
2018-07-09T01:05:40.567Z,3.60
2018-07-09T01:08:08.162Z,3.97
2018-07-09T01:10:36.495Z,4.03
2018-07-09T01:13:04.055Z,3.50
2018-07-09T01:15:31.649Z,3.50
2018-07-09T01:17:59.209Z,3.23
2018-07-09T01:20:27.608Z,3.50
2018-07-09T01:22:55.145Z,3.30
2018-07-09T01:25:22.726Z,3.60
2018-07-09T01:27:50.282Z,3.80
2018-07-09T01:30:18.640Z,3.80
2018-07-09T01:32:46.195Z,3.67
2018-07-09T01:35:13.757Z,3.90
2018-07-09T01:37:41.359Z,4.47
2018-07-09T01:40:08.914Z,4.55
2018-07-09T01:42:36.471Z,3.80
2018-07-09T01:45:04.833Z,3.80
2018-07-09T01:47:32.394Z,3.50
2018-07-09T01:50:00.204Z,3.37
2018-07-09T01:52:27.806Z,3.77
2018-07-09T01:54:55.367Z,4.43
2018-07-09T01:57:22.927Z,4.32
2018-07-09T01:59:50.522Z,3.63
2018-07-09T02:02:18.850Z,3.53
2018-07-09T02:04:46.411Z,3.37
2018-07-09T02:07:14.898Z,3.40
2018-07-09T02:09:42.456Z,3.40
2018-07-09T02:12:10.022Z,3.90
2018-07-09T02:14:37.619Z,3.37
2018-07-09T02:17:05.948Z,3.50
2018-07-09T02:19:33.505Z,3.30
2018-07-09T02:22:01.104Z,2.90
2018-07-09T02:24:28.666Z,3.60
2018-07-09T02:26:56.225Z,3.72
2018-07-09T02:29:23.844Z,3.33
2018-07-09T02:31:51.402Z,3.23
2018-07-09T02:34:18.964Z,3.33
2018-07-09T02:36:46.565Z,3.00
2018-07-09T02:39:14.130Z,3.33
2018-07-09T02:41:41.689Z,4.28
2018-07-09T02:44:09.278Z,3.27
2018-07-09T02:46:37.609Z,3.83
2018-07-09T02:49:05.183Z,3.50
2018-07-09T02:51:33.247Z,3.90
2018-07-09T02:54:00.805Z,3.57
2018-07-09T02:56:28.367Z,3.70
2018-07-09T02:58:55.958Z,3.63
2018-07-09T03:01:23.519Z,3.50
2018-07-09T03:03:52.373Z,3.57
2018-07-09T03:06:18.687Z,3.30
2018-07-09T03:08:46.250Z,4.55
2018-07-09T03:11:14.147Z,3.60
2018-07-09T03:13:41.759Z,3.50
2018-07-09T03:16:10.082Z,4.35
2018-07-09T03:18:37.642Z,3.83
2018-07-09T03:21:05.245Z,3.60
2018-07-09T03:23:32.801Z,4.10
2018-07-09T03:26:00.359Z,3.30
2018-07-09T03:28:27.959Z,3.57
2018-07-09T03:30:55.523Z,3.80
2018-07-09T03:33:23.082Z,3.87
2018-07-09T03:35:50.708Z,3.70
2018-07-09T03:38:18.279Z,3.20
2018-07-09T03:40:45.844Z,3.43
2018-07-09T03:43:14.210Z,3.87
2018-07-09T03:45:41.770Z,3.90
2018-07-09T03:48:09.329Z,4.13
2018-07-09T03:50:36.928Z,4.03
2018-07-09T03:53:04.491Z,3.50
2018-07-09T03:55:32.051Z,4.57
2018-07-09T03:58:00.358Z,4.23
2018-07-09T04:00:27.918Z,3.90
2018-07-09T04:02:55.483Z,3.93
2018-07-09T04:05:23.080Z,4.50
2018-07-09T04:07:50.637Z,4.20
2018-07-09T04:10:18.203Z,3.60
2018-07-09T04:12:45.809Z,3.53
2018-07-09T04:15:13.366Z,3.60
2018-07-09T04:17:40.924Z,4.17
2018-07-09T04:20:08.536Z,4.03
2018-07-09T04:22:36.094Z,4.20
2018-07-09T04:25:03.656Z,3.53
2018-07-09T04:27:31.245Z,4.00
2018-07-09T04:29:59.574Z,3.83
2018-07-09T04:32:27.135Z,3.77
2018-07-09T04:34:54.737Z,4.63
2018-07-09T04:37:23.065Z,3.73
2018-07-09T04:39:51.042Z,4.40
2018-07-09T04:42:19.021Z,4.47
2018-07-09T04:44:46.583Z,4.40
2018-07-09T04:47:14.146Z,4.85
2018-07-09T04:49:41.737Z,4.43
2018-07-09T04:52:09.298Z,5.03
2018-07-09T04:54:36.861Z,4.20
2018-07-09T04:57:05.218Z,4.20
2018-07-09T04:59:32.773Z,4.10
2018-07-09T05:02:00.333Z,3.83
2018-07-09T05:04:27.955Z,3.70
2018-07-09T05:06:55.522Z,4.00
2018-07-09T05:09:23.088Z,4.03
2018-07-09T05:11:50.696Z,4.20
2018-07-09T05:14:18.259Z,4.03
2018-07-09T05:16:45.822Z,4.10
2018-07-09T05:19:13.905Z,4.28
2018-07-09T05:21:42.531Z,3.97
2018-07-09T05:24:10.089Z,4.33
2018-07-09T05:26:37.695Z,4.43
2018-07-09T05:29:05.278Z,4.47
2018-07-09T05:31:33.597Z,3.87
2018-07-09T05:34:01.247Z,4.07
2018-07-09T05:36:28.837Z,5.10
2018-07-09T05:38:56.394Z,4.37
2018-07-09T05:41:24.035Z,4.30
2018-07-09T05:43:51.602Z,3.87
2018-07-09T05:46:19.164Z,4.23
2018-07-09T05:48:47.168Z,4.00
2018-07-09T05:51:14.723Z,4.37
2018-07-09T05:53:42.282Z,4.50
2018-07-09T05:56:09.922Z,4.50
2018-07-09T05:58:37.487Z,4.97
2018-07-09T06:01:05.059Z,4.60
2018-07-09T06:03:33.029Z,4.23
2018-07-09T06:06:00.596Z,4.13
2018-07-09T06:08:28.160Z,4.10
2018-07-09T06:10:55.778Z,4.17
2018-07-09T06:13:23.348Z,4.10
2018-07-09T06:15:50.901Z,4.63
2018-07-09T06:18:18.525Z,4.43
2018-07-09T06:20:46.090Z,4.27
2018-07-09T06:23:13.659Z,4.95
2018-07-09T06:25:41.269Z,4.80
2018-07-09T06:28:08.855Z,4.30
2018-07-09T06:30:36.418Z,4.30
2018-07-09T06:33:04.390Z,3.90
2018-07-09T06:35:31.951Z,3.97
2018-07-09T06:37:59.525Z,5.20
2018-07-09T06:40:27.166Z,4.87
2018-07-09T06:42:54.736Z,5.30
2018-07-09T06:45:22.296Z,4.30
2018-07-09T06:47:49.905Z,5.60
2018-07-09T06:50:17.472Z,5.20
2018-07-09T06:52:45.031Z,4.50
2018-07-09T06:55:12.675Z,4.33
2018-07-09T06:57:41.004Z,4.50
2018-07-09T07:00:08.571Z,5.10
2018-07-09T07:02:36.212Z,4.67
2018-07-09T07:05:03.773Z,4.67
2018-07-09T07:07:31.337Z,4.73
2018-07-09T07:09:58.984Z,3.93
2018-07-09T07:12:26.553Z,4.57
2018-07-09T07:14:54.114Z,4.27
2018-07-09T07:17:21.727Z,4.10
2018-07-09T07:19:49.293Z,3.97
2018-07-09T07:22:16.858Z,3.80
2018-07-09T07:24:44.497Z,3.90
2018-07-09T07:27:12.054Z,3.57
2018-07-09T07:29:39.618Z,3.57
2018-07-09T07:32:07.473Z,4.30
2018-07-09T07:34:35.036Z,3.90
2018-07-09T07:37:02.595Z,3.73
2018-07-09T07:39:30.206Z,3.40
2018-07-09T07:41:57.769Z,3.73
2018-07-09T07:44:26.102Z,3.73
2018-07-09T07:46:54.486Z,3.57
2018-07-09T07:49:22.046Z,4.03
2018-07-09T07:51:49.608Z,4.30
2018-07-09T07:54:17.214Z,3.77
2018-07-09T07:56:44.781Z,3.90
2018-07-09T07:59:13.112Z,3.47
2018-07-09T08:01:40.722Z,3.20
2018-07-09T08:04:08.282Z,3.23
2018-07-09T08:06:36.615Z,3.77
2018-07-09T08:09:05.195Z,3.43
2018-07-09T08:11:48.561Z,3.67
2018-07-09T08:14:00.355Z,3.53
2018-07-09T08:16:28.732Z,3.80
2018-07-09T08:18:57.062Z,3.40
2018-07-09T08:21:24.617Z,3.77
2018-07-09T08:23:52.232Z,2.90
2018-07-09T08:26:19.806Z,2.90
2018-07-09T08:28:48.127Z,3.20
2018-07-09T08:31:16.353Z,3.13
2018-07-09T08:33:43.781Z,3.47
2018-07-09T08:36:11.351Z,2.90
2018-07-09T08:38:39.329Z,2.57
2018-07-09T08:41:06.893Z,2.70
2018-07-09T08:43:34.464Z,2.50
2018-07-09T08:46:03.179Z,2.40
2018-07-09T08:48:30.745Z,2.20
2018-07-09T08:50:58.310Z,2.67
2018-07-09T08:53:26.312Z,1.63
2018-07-09T08:55:53.897Z,2.27
2018-07-09T08:58:21.464Z,2.50
2018-07-09T09:00:49.870Z,2.10
2018-07-09T09:03:17.438Z,2.10
2018-07-09T09:05:45.001Z,2.47
2018-07-09T09:08:12.648Z,3.00
2018-07-09T09:10:40.983Z,2.60
2018-07-09T09:13:08.559Z,2.63
2018-07-09T09:15:36.187Z,3.60
2018-07-09T09:18:03.747Z,3.07
2018-07-09T09:20:31.321Z,3.13
2018-07-09T09:22:59.633Z,3.17
2018-07-09T09:25:27.245Z,3.00
2018-07-09T09:27:55.542Z,2.93
2018-07-09T09:30:23.932Z,2.80
2018-07-09T09:32:51.499Z,2.50
2018-07-09T09:35:19.067Z,2.50
2018-07-09T09:37:46.685Z,2.70
2018-07-09T09:40:14.286Z,2.40
2018-07-09T09:42:41.819Z,2.60
2018-07-09T09:45:09.438Z,3.17
2018-07-09T09:47:37.769Z,2.90
2018-07-09T09:50:05.334Z,3.40
2018-07-09T09:52:32.958Z,2.90
2018-07-09T09:55:00.584Z,3.10
2018-07-09T09:57:28.093Z,3.17
2018-07-09T09:59:55.700Z,3.20
2018-07-09T10:02:23.265Z,3.53
2018-07-09T10:04:50.835Z,3.17
2018-07-09T10:07:18.821Z,3.07
2018-07-09T10:09:47.149Z,3.17
2018-07-09T10:12:14.728Z,3.00
2018-07-09T10:14:42.724Z,3.20
2018-07-09T10:17:10.293Z,3.13
2018-07-09T10:19:38.637Z,3.30
2018-07-09T10:22:07.103Z,3.07
2018-07-09T10:24:34.670Z,3.20
2018-07-09T10:27:02.237Z,2.93
2018-07-09T10:29:31.479Z,2.60
2018-07-09T10:31:59.813Z,3.20
2018-07-09T10:34:27.378Z,3.17
2018-07-09T10:36:55.000Z,3.07
2018-07-09T10:39:22.563Z,3.00
2018-07-09T10:41:50.134Z,2.27
2018-07-09T10:44:17.749Z,2.90
2018-07-09T10:46:46.082Z,2.83
2018-07-09T10:49:13.646Z,2.80
2018-07-09T10:51:41.261Z,3.40
2018-07-09T10:54:09.600Z,3.17
2018-07-09T10:56:37.165Z,2.40
2018-07-09T10:59:04.789Z,3.03
2018-07-09T11:01:32.368Z,3.30
2018-07-09T11:03:59.932Z,2.97
2018-07-09T11:06:27.540Z,2.60
2018-07-09T11:08:55.102Z,2.57
2018-07-09T11:11:22.701Z,2.58
2018-07-09T11:13:51.740Z,2.70
2018-07-09T11:16:17.915Z,2.30
2018-07-09T11:18:45.439Z,1.83
2018-07-09T11:21:13.046Z,2.30
2018-07-09T11:23:40.611Z,2.20
2018-07-09T11:26:08.174Z,2.20
2018-07-09T11:28:37.095Z,1.80
2018-07-09T11:31:04.676Z,1.93
2018-07-09T11:33:32.245Z,2.17
2018-07-09T11:35:59.874Z,2.20
2018-07-09T11:38:27.426Z,2.00
2018-07-09T11:40:54.997Z,2.20
2018-07-09T11:43:22.627Z,2.37
2018-07-09T11:45:50.200Z,1.80
2018-07-09T11:48:17.780Z,1.70
2018-07-09T11:50:45.429Z,1.60
2018-07-09T11:53:12.993Z,2.00
2018-07-09T11:55:41.356Z,1.70
2018-07-09T11:58:09.735Z,1.73
2018-07-09T12:00:37.303Z,1.43
2018-07-09T12:03:04.869Z,1.60
2018-07-09T12:05:32.484Z,1.77
2018-07-09T12:08:00.820Z,1.70
2018-07-09T12:10:28.379Z,1.70
2018-07-09T12:12:56.021Z,1.50
2018-07-09T12:15:23.608Z,1.57
2018-07-09T12:17:51.139Z,1.20
2018-07-09T12:20:19.100Z,1.50
2018-07-09T12:22:46.677Z,1.67
2018-07-09T12:25:14.248Z,1.40
2018-07-09T12:27:41.855Z,1.30
2018-07-09T12:30:09.422Z,1.40
2018-07-09T12:32:37.765Z,1.30
2018-07-09T12:35:05.375Z,1.37
2018-07-09T12:37:33.705Z,1.53
2018-07-09T12:40:01.273Z,1.50
2018-07-09T12:42:28.887Z,1.20
2018-07-09T12:44:56.451Z,1.13
2018-07-09T12:47:24.016Z,1.40
2018-07-09T12:49:51.630Z,1.53
2018-07-09T12:52:19.197Z,1.70
2018-07-09T12:54:46.770Z,1.30
2018-07-09T12:57:15.185Z,1.87
2018-07-09T12:59:42.748Z,1.80
2018-07-09T13:02:10.310Z,1.97
2018-07-09T13:04:37.925Z,1.60
2018-07-09T13:07:05.547Z,1.73
2018-07-09T13:09:33.056Z,2.10
2018-07-09T13:12:01.435Z,1.87
2018-07-09T13:14:29.019Z,2.20
2018-07-09T13:16:57.339Z,1.90
2018-07-09T13:19:24.969Z,1.80
2018-07-09T13:21:52.542Z,1.33
2018-07-09T13:24:20.106Z,1.43
2018-07-09T13:26:48.719Z,1.80
2018-07-09T13:29:16.315Z,1.70
2018-07-09T13:31:43.902Z,1.80
2018-07-09T13:34:11.521Z,1.60
2018-07-09T13:36:39.090Z,1.37
2018-07-09T13:39:06.658Z,1.50
2018-07-09T13:41:35.071Z,1.57
2018-07-09T13:44:02.652Z,1.50
2018-07-09T13:46:30.206Z,1.40
2018-07-09T13:48:58.206Z,1.60
2018-07-09T13:51:25.769Z,2.00
2018-07-09T13:53:53.336Z,1.50
2018-07-09T13:56:21.529Z,1.90
2018-07-09T13:58:50.609Z,1.70
2018-07-09T14:01:18.178Z,1.70
2018-07-09T14:03:45.793Z,1.70
2018-07-09T14:06:13.375Z,1.67
2018-07-09T14:08:40.944Z,1.60
2018-07-09T14:11:09.431Z,1.95
2018-07-09T14:13:37.006Z,1.70
2018-07-09T14:16:04.570Z,1.90
2018-07-09T14:18:32.963Z,2.00
2018-07-09T14:21:00.535Z,1.93
2018-07-09T14:23:28.865Z,1.70
2018-07-09T14:25:56.488Z,1.90
2018-07-09T14:28:24.054Z,1.60
2018-07-09T14:30:51.616Z,2.17
2018-07-09T14:33:19.623Z,2.00
2018-07-09T14:35:47.189Z,1.90
2018-07-09T14:38:14.760Z,2.27
2018-07-09T14:40:42.381Z,2.00
2018-07-09T14:43:09.948Z,1.90
2018-07-09T14:45:37.556Z,1.83
2018-07-09T14:48:05.138Z,1.98
2018-07-09T14:50:33.469Z,1.97
2018-07-09T14:53:01.039Z,1.80
2018-07-09T14:55:29.408Z,2.27
2018-07-09T14:57:56.979Z,2.10
2018-07-09T15:00:24.550Z,2.20
2018-07-09T15:02:52.160Z,2.22
2018-07-09T15:05:19.728Z,2.33
2018-07-09T15:07:47.292Z,2.20
2018-07-09T15:10:14.901Z,2.67
2018-07-09T15:12:42.456Z,2.90
2018-07-09T15:15:10.019Z,2.30
2018-07-09T15:17:37.640Z,2.70
2018-07-09T15:20:05.208Z,2.70
2018-07-09T15:22:32.777Z,2.60
2018-07-09T15:25:00.396Z,2.90
2018-07-09T15:27:27.964Z,2.40
2018-07-09T15:29:55.528Z,2.33
2018-07-09T15:32:23.592Z,2.50
2018-07-09T15:34:51.112Z,2.20
2018-07-09T15:37:18.679Z,2.60
2018-07-09T15:39:46.296Z,2.83
2018-07-09T15:42:13.864Z,3.00
2018-07-09T15:44:41.434Z,2.50
2018-07-09T15:47:09.924Z,2.47
2018-07-09T15:49:37.500Z,2.50
2018-07-09T15:52:05.058Z,2.55
2018-07-09T15:54:33.322Z,2.87
2018-07-09T15:57:00.894Z,2.40
2018-07-09T15:59:28.457Z,2.53
2018-07-09T16:01:56.518Z,2.83
2018-07-09T16:04:24.092Z,2.10
2018-07-09T16:06:51.650Z,2.77
2018-07-09T16:09:19.759Z,2.47
2018-07-09T16:11:48.090Z,2.47
2018-07-09T16:14:15.649Z,2.23
2018-07-09T16:16:43.270Z,3.03
2018-07-09T16:19:10.852Z,2.73
2018-07-09T16:21:38.420Z,2.80
2018-07-09T16:24:06.037Z,2.53
2018-07-09T16:26:34.369Z,2.53
2018-07-09T16:29:01.987Z,2.60
2018-07-09T16:31:29.558Z,2.23
2018-07-09T16:33:57.132Z,2.60
2018-07-09T16:36:24.715Z,2.50
2018-07-09T16:38:53.010Z,2.20
2018-07-09T16:41:20.583Z,2.23
2018-07-09T16:43:48.145Z,2.40
2018-07-09T16:46:15.788Z,2.25
2018-07-09T16:48:43.355Z,2.50
2018-07-09T16:51:10.921Z,2.65
2018-07-09T16:53:38.530Z,2.20
2018-07-09T16:56:06.094Z,2.90
2018-07-09T16:58:33.656Z,2.23
2018-07-09T17:01:01.270Z,2.27
2018-07-09T17:03:28.833Z,2.60
2018-07-09T17:05:56.430Z,2.30
2018-07-09T17:08:24.108Z,2.30
2018-07-09T17:10:52.423Z,2.50
2018-07-09T17:13:19.986Z,2.50
2018-07-09T17:15:47.599Z,2.20
2018-07-09T17:18:15.155Z,2.50
2018-07-09T17:20:42.723Z,2.37
2018-07-09T17:23:10.375Z,2.60
2018-07-09T17:25:38.702Z,2.40
2018-07-09T17:28:06.258Z,2.30
2018-07-09T17:30:33.906Z,2.00
2018-07-09T17:33:01.476Z,2.27
2018-07-09T17:35:29.041Z,2.63
2018-07-09T17:37:56.658Z,2.33
2018-07-09T17:40:24.993Z,2.40
2018-07-09T17:42:52.553Z,2.27
2018-07-09T17:45:20.162Z,2.50
2018-07-09T17:47:47.731Z,2.23
2018-07-09T17:50:15.349Z,2.57
2018-07-09T17:52:42.905Z,2.70
2018-07-09T17:55:10.470Z,2.50
2018-07-09T17:57:38.030Z,3.10
2018-07-09T18:00:05.651Z,3.07
2018-07-09T18:02:33.219Z,2.90
2018-07-09T18:05:00.787Z,2.60
2018-07-09T18:07:28.407Z,2.73
2018-07-09T18:09:56.748Z,2.60
2018-07-09T18:12:24.313Z,2.70
2018-07-09T18:14:51.958Z,3.07
2018-07-09T18:17:19.527Z,3.17
2018-07-09T18:19:47.113Z,2.70
2018-07-09T18:22:15.176Z,2.53
2018-07-09T18:24:42.741Z,2.80
2018-07-09T18:27:10.310Z,3.07
2018-07-09T18:29:37.928Z,3.50
2018-07-09T18:32:05.499Z,3.60
2018-07-09T18:34:33.062Z,3.13
2018-07-09T18:37:01.675Z,2.90
2018-07-09T18:39:29.238Z,3.10
2018-07-09T18:41:56.821Z,3.27
2018-07-09T18:44:24.464Z,3.00
2018-07-09T18:46:52.033Z,3.37
2018-07-09T18:49:19.606Z,3.45
2018-07-09T18:51:47.915Z,3.30
2018-07-09T18:54:15.478Z,3.40
2018-07-09T18:56:43.046Z,3.40
2018-07-09T18:59:10.663Z,3.10
2018-07-09T19:01:38.226Z,3.27
2018-07-09T19:04:06.561Z,3.10
2018-07-09T19:06:34.178Z,3.10
2018-07-09T19:09:02.511Z,2.50
2018-07-09T19:11:30.082Z,2.50
2018-07-09T19:13:57.691Z,2.67
2018-07-09T19:16:25.250Z,2.23
2018-07-09T19:19:30.304Z,2.30
2018-07-09T19:21:57.876Z,1.73
2018-07-09T19:24:24.927Z,2.03
2018-07-09T19:26:52.038Z,2.17
2018-07-09T19:29:19.868Z,1.63
2018-07-09T19:31:46.920Z,1.87
2018-07-09T19:34:15.005Z,2.00
2018-07-09T19:36:42.088Z,2.00
2018-07-09T19:39:09.906Z,2.23
2018-07-09T19:41:37.041Z,2.20
2018-07-09T19:44:04.064Z,2.13
2018-07-09T19:46:31.120Z,2.17
2018-07-09T19:48:58.223Z,1.80
2018-07-09T19:51:25.282Z,1.90
2018-07-09T19:53:52.342Z,1.90
2018-07-09T19:56:20.163Z,2.13
2018-07-09T19:58:47.227Z,1.83
2018-07-09T20:01:14.283Z,2.40
2018-07-09T20:03:41.393Z,2.30
2018-07-09T20:06:08.455Z,2.67
2018-07-09T20:08:35.527Z,2.53
2018-07-09T20:11:21.104Z,2.60
2018-07-09T20:13:48.163Z,3.00
2018-07-09T20:16:18.014Z,2.63
2018-07-09T20:18:45.116Z,3.30
2018-07-09T20:21:12.180Z,3.17
2018-07-09T20:23:39.238Z,3.00
2018-07-09T20:26:07.130Z,2.50
2018-07-09T20:28:34.194Z,2.30
2018-07-09T20:31:01.256Z,2.85
2018-07-09T20:33:28.820Z,3.10
2018-07-09T20:35:55.879Z,2.53
2018-07-09T20:38:22.948Z,2.90
2018-07-09T20:40:50.052Z,2.80
2018-07-09T20:45:37.432Z,3.10
2018-07-09T20:48:06.252Z,2.60
2018-07-09T20:50:34.077Z,2.63
2018-07-09T20:53:01.139Z,2.77
2018-07-09T20:55:28.230Z,3.10
2018-07-09T20:57:56.056Z,3.22
2018-07-09T21:00:23.115Z,2.83
2018-07-09T21:02:50.243Z,3.10
2018-07-09T21:05:17.301Z,2.83
2018-07-09T21:07:44.378Z,2.93
2018-07-09T21:10:11.474Z,2.73
2018-07-09T21:12:38.526Z,2.60
2018-07-09T21:15:05.610Z,3.50
2018-07-09T21:17:32.682Z,2.70
2018-07-09T21:19:59.782Z,3.20
2018-07-09T21:22:27.142Z,3.40
2018-07-09T21:24:54.620Z,3.20
2018-07-09T21:27:21.671Z,3.17
2018-07-09T21:29:48.732Z,3.75
2018-07-09T21:32:16.276Z,4.12
2018-07-09T21:34:43.331Z,3.80
2018-07-09T21:37:10.399Z,4.28
2018-07-09T21:39:37.500Z,4.00
2018-07-09T21:42:04.551Z,4.10
2018-07-09T21:44:31.605Z,4.17
2018-07-09T21:46:59.077Z,4.20
2018-07-09T21:49:26.138Z,4.13
2018-07-09T21:51:53.197Z,4.07
2018-07-09T21:54:20.288Z,4.10
2018-07-09T21:56:47.350Z,4.00
2018-07-09T21:59:14.405Z,4.37
2018-07-09T22:01:41.502Z,5.00
2018-07-09T22:04:08.562Z,4.50
2018-07-09T22:06:36.388Z,4.93
2018-07-09T22:09:03.491Z,4.30
2018-07-09T22:11:30.549Z,4.77
2018-07-09T22:13:57.611Z,4.80
2018-07-09T22:16:24.698Z,4.70
2018-07-09T22:18:51.750Z,5.20
2018-07-09T22:21:18.805Z,5.23
2018-07-09T22:23:45.899Z,4.80
2018-07-09T22:26:12.960Z,4.83
2018-07-09T22:28:40.018Z,4.63
2018-07-09T22:31:07.645Z,4.77
2018-07-09T22:33:35.217Z,4.00
2018-07-09T22:36:02.781Z,4.30
2018-07-09T22:38:30.383Z,5.13
2018-07-09T22:40:57.960Z,4.93
2018-07-09T22:44:02.265Z,4.47
2018-07-09T22:46:29.819Z,4.53
2018-07-09T22:48:57.389Z,4.70
2018-07-09T22:51:25.048Z,5.30
2018-07-09T22:53:52.581Z,4.20
2018-07-09T22:56:20.143Z,4.53
2018-07-09T22:58:47.745Z,4.10
2018-07-09T23:01:15.321Z,4.30
2018-07-09T23:03:43.664Z,4.17
2018-07-09T23:06:11.264Z,4.40
2018-07-09T23:08:38.827Z,3.80
2018-07-09T23:11:07.163Z,4.10
2018-07-09T23:13:34.794Z,4.60
2018-07-09T23:16:02.362Z,5.20
2018-07-09T23:18:32.379Z,5.60
2018-07-09T23:20:59.976Z,4.73
2018-07-09T23:23:27.031Z,4.60
2018-07-09T23:25:54.094Z,4.40
2018-07-09T23:28:21.186Z,4.17
2018-07-09T23:30:48.242Z,4.60
2018-07-09T23:33:15.304Z,3.97
2018-07-09T23:35:42.416Z,4.27
2018-07-09T23:38:09.473Z,4.37
2018-07-09T23:40:36.539Z,3.90
2018-07-09T23:43:03.624Z,4.20
2018-07-09T23:45:30.687Z,4.30
2018-07-09T23:47:57.742Z,4.60
2018-07-09T23:50:24.836Z,4.60
2018-07-09T23:52:51.925Z,4.73
2018-07-09T23:55:18.946Z,4.20
2018-07-09T23:57:46.567Z,4.30
